Gray Army Air Field Fort Lewis,Tacoma US
ICAO: KGRF
IATA: GRF
Category: Medium
Scheduled Services: No

Elevation: 300 ft
TransAlt. 18000 ft.

Airport Communications:
SEATTLE APP/DEP:120.1
ATIS:124.65
CTAF:119.325
GND/CLNC DEL:121.9
AR OPS:36.1
ARNG OPS:36.55
OPS:32.3
PMSV METRO:134.1
BULLSEYE RDO:36.7
TWR:119.325

KGRF Zoom In..

If you have problems with the map follow the link
https://www.worldairports.se/pages/airport.php?
ICAO=KGRF

Runways:

(A) RW 15 length 6125 ft width 150 ft
ILS 108.30 / hdg 151

(B) RW 33 length 6125 ft width 150 ft
---- / hdg 331

Location; KGRF
Day. 19 / Time. 13.27 Zulu
* Altimeter: 30.14
* Temperature: -01° c. -30.2°f.
* Wind from: 000° Speed 00 kn.
Dewpoint: -01° c.
Visibility: 10 Statute Miles.
Clouds: Broken 400 ft.
Clouds: Broken 00 ft.
Clouds: Few 00 ft.

KGRF 191327Z AUTO 00000KT 10SM BKN004 M01/M01 A3014 RMK AO2 BKN V FEW SLP213 $


Wind - Calm.

 
 
jpsmedia.com for Web Design worldairports.se 2018   terms of use